sensor_id;sensor_type;location;lat;lon;timestamp;P1;durP1;ratioP1;P2;durP2;ratioP2
8319;SDS011;4197;42.130;24.746;2022-07-04T00:00:20;5.22;;;2.53;;
8319;SDS011;4197;42.130;24.746;2022-07-04T00:02:49;5.05;;;2.88;;
8319;SDS011;4197;42.130;24.746;2022-07-04T00:05:18;5.15;;;2.65;;
8319;SDS011;4197;42.130;24.746;2022-07-04T00:07:47;5.88;;;2.50;;
8319;SDS011;4197;42.130;24.746;2022-07-04T00:10:21;3.53;;;2.63;;
8319;SDS011;4197;42.130;24.746;2022-07-04T00:12:51;4.63;;;2.45;;
8319;SDS011;4197;42.130;24.746;2022-07-04T00:15:19;8.57;;;3.00;;
8319;SDS011;4197;42.130;24.746;2022-07-04T00:17:48;6.10;;;2.60;;
8319;SDS011;4197;42.130;24.746;2022-07-04T00:20:16;5.05;;;2.63;;
8319;SDS011;4197;42.130;24.746;2022-07-04T00:22:44;9.07;;;2.30;;
8319;SDS011;4197;42.130;24.746;2022-07-04T00:25:12;5.13;;;3.00;;
8319;SDS011;4197;42.130;24.746;2022-07-04T00:27:41;5.25;;;2.67;;
8319;SDS011;4197;42.130;24.746;2022-07-04T00:30:11;5.07;;;2.67;;
8319;SDS011;4197;42.130;24.746;2022-07-04T00:32:39;7.93;;;3.20;;
8319;SDS011;4197;42.130;24.746;2022-07-04T00:35:08;5.13;;;2.90;;
8319;SDS011;4197;42.130;24.746;2022-07-04T00:37:36;6.93;;;2.40;;
8319;SDS011;4197;42.130;24.746;2022-07-04T00:40:04;5.68;;;2.63;;
8319;SDS011;4197;42.130;24.746;2022-07-04T00:42:33;7.82;;;2.92;;
8319;SDS011;4197;42.130;24.746;2022-07-04T00:45:01;6.32;;;2.70;;
8319;SDS011;4197;42.130;24.746;2022-07-04T00:47:31;5.65;;;2.60;;
8319;SDS011;4197;42.130;24.746;2022-07-04T00:50:00;5.03;;;2.38;;
8319;SDS011;4197;42.130;24.746;2022-07-04T00:52:28;4.40;;;2.60;;
8319;SDS011;4197;42.130;24.746;2022-07-04T00:54:56;5.75;;;3.00;;
8319;SDS011;4197;42.130;24.746;2022-07-04T00:57:27;7.85;;;2.97;;
8319;SDS011;4197;42.130;24.746;2022-07-04T00:59:56;8.05;;;2.75;;
8319;SDS011;4197;42.130;24.746;2022-07-04T01:02:24;8.45;;;2.97;;
8319;SDS011;4197;42.130;24.746;2022-07-04T01:04:53;4.55;;;2.60;;
8319;SDS011;4197;42.130;24.746;2022-07-04T01:07:22;4.28;;;2.65;;
8319;SDS011;4197;42.130;24.746;2022-07-04T01:09:50;8.05;;;3.30;;
8319;SDS011;4197;42.130;24.746;2022-07-04T01:12:25;4.68;;;2.47;;
8319;SDS011;4197;42.130;24.746;2022-07-04T01:14:54;5.63;;;3.15;;
8319;SDS011;4197;42.130;24.746;2022-07-04T01:17:22;4.32;;;2.72;;
8319;SDS011;4197;42.130;24.746;2022-07-04T01:19:51;4.05;;;3.05;;
8319;SDS011;4197;42.130;24.746;2022-07-04T01:22:20;5.95;;;3.28;;
8319;SDS011;4197;42.130;24.746;2022-07-04T01:24:49;8.27;;;3.00;;
8319;SDS011;4197;42.130;24.746;2022-07-04T01:27:17;5.97;;;3.00;;
8319;SDS011;4197;42.130;24.746;2022-07-04T01:29:46;6.10;;;3.10;;
8319;SDS011;4197;42.130;24.746;2022-07-04T01:32:14;4.93;;;3.20;;
8319;SDS011;4197;42.130;24.746;2022-07-04T01:34:42;10.25;;;3.00;;
8319;SDS011;4197;42.130;24.746;2022-07-04T01:37:11;8.45;;;3.10;;
8319;SDS011;4197;42.130;24.746;2022-07-04T01:39:40;7.20;;;2.95;;
8319;SDS011;4197;42.130;24.746;2022-07-04T01:42:09;3.75;;;2.85;;
8319;SDS011;4197;42.130;24.746;2022-07-04T01:44:37;8.88;;;3.28;;
8319;SDS011;4197;42.130;24.746;2022-07-04T01:47:06;11.57;;;3.13;;
8319;SDS011;4197;42.130;24.746;2022-07-04T01:49:34;7.13;;;2.75;;
8319;SDS011;4197;42.130;24.746;2022-07-04T01:52:02;7.18;;;3.30;;
8319;SDS011;4197;42.130;24.746;2022-07-04T01:54:31;5.40;;;3.03;;
8319;SDS011;4197;42.130;24.746;2022-07-04T01:57:00;8.80;;;3.00;;
8319;SDS011;4197;42.130;24.746;2022-07-04T01:59:29;8.95;;;3.20;;
8319;SDS011;4197;42.130;24.746;2022-07-04T02:02:15;12.98;;;3.33;;
8319;SDS011;4197;42.130;24.746;2022-07-04T02:04:43;4.85;;;3.22;;
8319;SDS011;4197;42.130;24.746;2022-07-04T02:07:11;5.13;;;3.08;;
8319;SDS011;4197;42.130;24.746;2022-07-04T02:09:40;6.22;;;2.95;;
8319;SDS011;4197;42.130;24.746;2022-07-04T02:12:09;5.53;;;3.30;;
8319;SDS011;4197;42.130;24.746;2022-07-04T02:14:55;7.43;;;3.33;;
8319;SDS011;4197;42.130;24.746;2022-07-04T02:17:23;4.38;;;2.50;;
8319;SDS011;4197;42.130;24.746;2022-07-04T02:19:51;8.25;;;3.38;;
8319;SDS011;4197;42.130;24.746;2022-07-04T02:22:19;9.77;;;3.50;;
8319;SDS011;4197;42.130;24.746;2022-07-04T02:24:47;7.30;;;3.25;;
8319;SDS011;4197;42.130;24.746;2022-07-04T02:27:18;7.47;;;3.78;;
8319;SDS011;4197;42.130;24.746;2022-07-04T02:29:46;6.30;;;3.33;;
8319;SDS011;4197;42.130;24.746;2022-07-04T02:32:14;7.38;;;3.85;;
8319;SDS011;4197;42.130;24.746;2022-07-04T02:34:42;4.32;;;3.13;;
8319;SDS011;4197;42.130;24.746;2022-07-04T02:37:10;6.20;;;3.08;;
8319;SDS011;4197;42.130;24.746;2022-07-04T02:39:39;8.52;;;3.65;;
8319;SDS011;4197;42.130;24.746;2022-07-04T02:42:07;8.55;;;3.88;;
8319;SDS011;4197;42.130;24.746;2022-07-04T02:44:37;7.63;;;3.60;;
8319;SDS011;4197;42.130;24.746;2022-07-04T02:47:05;8.10;;;3.40;;
8319;SDS011;4197;42.130;24.746;2022-07-04T02:49:33;8.65;;;3.30;;
8319;SDS011;4197;42.130;24.746;2022-07-04T02:52:01;6.57;;;3.20;;
8319;SDS011;4197;42.130;24.746;2022-07-04T02:54:29;5.40;;;3.55;;
8319;SDS011;4197;42.130;24.746;2022-07-04T02:56:57;9.48;;;3.65;;
8319;SDS011;4197;42.130;24.746;2022-07-04T02:59:28;4.38;;;2.85;;
8319;SDS011;4197;42.130;24.746;2022-07-04T03:01:58;4.80;;;3.35;;
8319;SDS011;4197;42.130;24.746;2022-07-04T03:04:26;6.90;;;3.90;;
8319;SDS011;4197;42.130;24.746;2022-07-04T03:06:54;7.05;;;3.67;;
8319;SDS011;4197;42.130;24.746;2022-07-04T03:09:22;7.53;;;3.50;;
8319;SDS011;4197;42.130;24.746;2022-07-04T03:11:53;10.05;;;3.72;;
8319;SDS011;4197;42.130;24.746;2022-07-04T03:14:21;7.40;;;3.38;;
8319;SDS011;4197;42.130;24.746;2022-07-04T03:16:49;7.00;;;3.42;;
8319;SDS011;4197;42.130;24.746;2022-07-04T03:19:21;6.43;;;3.13;;
8319;SDS011;4197;42.130;24.746;2022-07-04T03:21:49;5.20;;;3.55;;
8319;SDS011;4197;42.130;24.746;2022-07-04T03:24:17;8.02;;;3.80;;
8319;SDS011;4197;42.130;24.746;2022-07-04T03:26:45;8.80;;;4.38;;
8319;SDS011;4197;42.130;24.746;2022-07-04T03:29:14;6.25;;;3.78;;
8319;SDS011;4197;42.130;24.746;2022-07-04T03:31:42;10.52;;;4.43;;
8319;SDS011;4197;42.130;24.746;2022-07-04T03:34:10;7.47;;;3.72;;
8319;SDS011;4197;42.130;24.746;2022-07-04T03:36:40;7.43;;;4.00;;
8319;SDS011;4197;42.130;24.746;2022-07-04T03:39:08;6.35;;;3.47;;
8319;SDS011;4197;42.130;24.746;2022-07-04T03:41:36;8.18;;;3.83;;
8319;SDS011;4197;42.130;24.746;2022-07-04T03:44:04;5.68;;;3.45;;
8319;SDS011;4197;42.130;24.746;2022-07-04T03:46:33;6.75;;;3.72;;
8319;SDS011;4197;42.130;24.746;2022-07-04T03:49:01;9.77;;;3.28;;
8319;SDS011;4197;42.130;24.746;2022-07-04T03:51:29;5.30;;;2.92;;
8319;SDS011;4197;42.130;24.746;2022-07-04T03:53:59;8.27;;;3.40;;
8319;SDS011;4197;42.130;24.746;2022-07-04T03:56:27;8.90;;;4.03;;
8319;SDS011;4197;42.130;24.746;2022-07-04T03:58:55;7.68;;;4.47;;
8319;SDS011;4197;42.130;24.746;2022-07-04T04:01:23;10.88;;;5.78;;
8319;SDS011;4197;42.130;24.746;2022-07-04T04:03:52;13.23;;;5.43;;
8319;SDS011;4197;42.130;24.746;2022-07-04T04:06:37;9.95;;;5.13;;
8319;SDS011;4197;42.130;24.746;2022-07-04T04:09:07;14.93;;;5.00;;
8319;SDS011;4197;42.130;24.746;2022-07-04T04:11:40;13.60;;;5.13;;
8319;SDS011;4197;42.130;24.746;2022-07-04T04:14:08;9.98;;;5.40;;
8319;SDS011;4197;42.130;24.746;2022-07-04T04:16:38;10.00;;;4.80;;
8319;SDS011;4197;42.130;24.746;2022-07-04T04:19:08;8.30;;;4.22;;
8319;SDS011;4197;42.130;24.746;2022-07-04T04:21:36;13.85;;;5.93;;
8319;SDS011;4197;42.130;24.746;2022-07-04T04:24:04;8.07;;;5.65;;
8319;SDS011;4197;42.130;24.746;2022-07-04T04:26:35;15.02;;;5.85;;
8319;SDS011;4197;42.130;24.746;2022-07-04T04:29:03;10.00;;;5.78;;
8319;SDS011;4197;42.130;24.746;2022-07-04T04:31:31;10.50;;;5.60;;
8319;SDS011;4197;42.130;24.746;2022-07-04T04:33:59;11.55;;;4.68;;
8319;SDS011;4197;42.130;24.746;2022-07-04T04:36:29;10.57;;;4.70;;
8319;SDS011;4197;42.130;24.746;2022-07-04T04:38:58;7.05;;;3.80;;
8319;SDS011;4197;42.130;24.746;2022-07-04T04:41:27;6.65;;;3.90;;
8319;SDS011;4197;42.130;24.746;2022-07-04T04:43:55;5.82;;;3.97;;
8319;SDS011;4197;42.130;24.746;2022-07-04T04:46:23;9.32;;;4.63;;
8319;SDS011;4197;42.130;24.746;2022-07-04T04:48:52;11.85;;;4.30;;
8319;SDS011;4197;42.130;24.746;2022-07-04T04:51:20;8.00;;;3.90;;
8319;SDS011;4197;42.130;24.746;2022-07-04T04:53:48;8.13;;;4.43;;
8319;SDS011;4197;42.130;24.746;2022-07-04T04:56:16;8.82;;;4.07;;
8319;SDS011;4197;42.130;24.746;2022-07-04T04:58:46;7.22;;;4.10;;
8319;SDS011;4197;42.130;24.746;2022-07-04T05:01:14;7.57;;;3.60;;
8319;SDS011;4197;42.130;24.746;2022-07-04T05:04:03;13.05;;;4.10;;
8319;SDS011;4197;42.130;24.746;2022-07-04T05:06:31;12.65;;;4.35;;
8319;SDS011;4197;42.130;24.746;2022-07-04T05:09:00;8.38;;;4.15;;
8319;SDS011;4197;42.130;24.746;2022-07-04T05:11:28;7.13;;;3.97;;
8319;SDS011;4197;42.130;24.746;2022-07-04T05:13:57;11.85;;;3.53;;
8319;SDS011;4197;42.130;24.746;2022-07-04T05:16:26;9.55;;;4.55;;
8319;SDS011;4197;42.130;24.746;2022-07-04T05:18:56;9.57;;;4.18;;
8319;SDS011;4197;42.130;24.746;2022-07-04T05:21:24;7.28;;;4.00;;
8319;SDS011;4197;42.130;24.746;2022-07-04T05:23:52;10.35;;;4.32;;
8319;SDS011;4197;42.130;24.746;2022-07-04T05:26:21;18.40;;;4.20;;
8319;SDS011;4197;42.130;24.746;2022-07-04T05:28:50;8.23;;;4.00;;
8319;SDS011;4197;42.130;24.746;2022-07-04T05:31:19;8.35;;;3.70;;
8319;SDS011;4197;42.130;24.746;2022-07-04T05:33:55;12.55;;;4.18;;
8319;SDS011;4197;42.130;24.746;2022-07-04T05:36:25;8.20;;;3.35;;
8319;SDS011;4197;42.130;24.746;2022-07-04T05:38:55;17.20;;;5.13;;
8319;SDS011;4197;42.130;24.746;2022-07-04T05:41:24;10.07;;;4.00;;
8319;SDS011;4197;42.130;24.746;2022-07-04T05:43:52;7.75;;;4.55;;
8319;SDS011;4197;42.130;24.746;2022-07-04T05:46:41;6.47;;;3.72;;
8319;SDS011;4197;42.130;24.746;2022-07-04T05:49:09;7.13;;;3.65;;
8319;SDS011;4197;42.130;24.746;2022-07-04T05:51:38;10.63;;;3.92;;
8319;SDS011;4197;42.130;24.746;2022-07-04T05:54:07;5.60;;;3.00;;
8319;SDS011;4197;42.130;24.746;2022-07-04T05:56:35;8.43;;;2.90;;
8319;SDS011;4197;42.130;24.746;2022-07-04T05:59:04;9.77;;;3.10;;
8319;SDS011;4197;42.130;24.746;2022-07-04T06:01:33;8.38;;;2.90;;
8319;SDS011;4197;42.130;24.746;2022-07-04T06:04:03;6.78;;;2.50;;
8319;SDS011;4197;42.130;24.746;2022-07-04T06:06:32;7.00;;;3.08;;
8319;SDS011;4197;42.130;24.746;2022-07-04T06:09:01;4.63;;;2.83;;
8319;SDS011;4197;42.130;24.746;2022-07-04T06:11:34;7.65;;;2.78;;
8319;SDS011;4197;42.130;24.746;2022-07-04T06:14:03;5.40;;;2.70;;
8319;SDS011;4197;42.130;24.746;2022-07-04T06:16:31;5.13;;;2.80;;
8319;SDS011;4197;42.130;24.746;2022-07-04T06:18:59;9.57;;;2.80;;
8319;SDS011;4197;42.130;24.746;2022-07-04T06:21:29;9.52;;;3.38;;
8319;SDS011;4197;42.130;24.746;2022-07-04T06:23:57;12.88;;;3.55;;
8319;SDS011;4197;42.130;24.746;2022-07-04T06:26:26;6.70;;;2.60;;
8319;SDS011;4197;42.130;24.746;2022-07-04T06:28:54;10.02;;;2.80;;
8319;SDS011;4197;42.130;24.746;2022-07-04T06:31:22;6.18;;;3.08;;
8319;SDS011;4197;42.130;24.746;2022-07-04T06:33:51;7.55;;;3.15;;
8319;SDS011;4197;42.130;24.746;2022-07-04T06:36:38;8.63;;;3.03;;
8319;SDS011;4197;42.130;24.746;2022-07-04T06:39:06;7.57;;;2.45;;
8319;SDS011;4197;42.130;24.746;2022-07-04T06:41:34;6.60;;;2.85;;
8319;SDS011;4197;42.130;24.746;2022-07-04T06:44:03;5.80;;;2.63;;
8319;SDS011;4197;42.130;24.746;2022-07-04T06:46:38;5.22;;;2.88;;
8319;SDS011;4197;42.130;24.746;2022-07-04T06:49:06;4.03;;;2.75;;
8319;SDS011;4197;42.130;24.746;2022-07-04T06:51:35;7.50;;;2.53;;
8319;SDS011;4197;42.130;24.746;2022-07-04T06:54:05;7.18;;;2.83;;
8319;SDS011;4197;42.130;24.746;2022-07-04T06:56:34;6.28;;;2.63;;
8319;SDS011;4197;42.130;24.746;2022-07-04T06:59:02;8.10;;;2.92;;
8319;SDS011;4197;42.130;24.746;2022-07-04T07:01:32;7.05;;;2.72;;
8319;SDS011;4197;42.130;24.746;2022-07-04T07:04:00;7.50;;;3.03;;
8319;SDS011;4197;42.130;24.746;2022-07-04T07:06:28;8.20;;;3.80;;
8319;SDS011;4197;42.130;24.746;2022-07-04T07:08:56;5.53;;;2.80;;
8319;SDS011;4197;42.130;24.746;2022-07-04T07:11:26;4.80;;;2.40;;
8319;SDS011;4197;42.130;24.746;2022-07-04T07:13:54;8.73;;;4.07;;
8319;SDS011;4197;42.130;24.746;2022-07-04T07:16:23;6.82;;;3.22;;
8319;SDS011;4197;42.130;24.746;2022-07-04T07:18:52;10.52;;;3.55;;
8319;SDS011;4197;42.130;24.746;2022-07-04T07:21:21;5.25;;;2.90;;
8319;SDS011;4197;42.130;24.746;2022-07-04T07:23:49;7.38;;;3.10;;
8319;SDS011;4197;42.130;24.746;2022-07-04T07:26:18;6.85;;;3.03;;
8319;SDS011;4197;42.130;24.746;2022-07-04T07:28:47;5.35;;;3.10;;
8319;SDS011;4197;42.130;24.746;2022-07-04T07:31:16;6.88;;;3.50;;
8319;SDS011;4197;42.130;24.746;2022-07-04T07:33:44;9.43;;;4.22;;
8319;SDS011;4197;42.130;24.746;2022-07-04T07:36:12;11.30;;;4.28;;
8319;SDS011;4197;42.130;24.746;2022-07-04T07:38:40;8.45;;;3.42;;
8319;SDS011;4197;42.130;24.746;2022-07-04T07:41:09;4.00;;;3.30;;
8319;SDS011;4197;42.130;24.746;2022-07-04T07:43:37;10.05;;;3.90;;
8319;SDS011;4197;42.130;24.746;2022-07-04T07:46:08;6.45;;;3.38;;
8319;SDS011;4197;42.130;24.746;2022-07-04T07:48:36;7.43;;;3.45;;
8319;SDS011;4197;42.130;24.746;2022-07-04T07:51:04;8.50;;;3.22;;
8319;SDS011;4197;42.130;24.746;2022-07-04T07:53:33;5.60;;;3.15;;
8319;SDS011;4197;42.130;24.746;2022-07-04T07:56:21;8.55;;;3.80;;
8319;SDS011;4197;42.130;24.746;2022-07-04T07:58:50;8.25;;;4.07;;
8319;SDS011;4197;42.130;24.746;2022-07-04T08:01:20;6.25;;;3.47;;
8319;SDS011;4197;42.130;24.746;2022-07-04T08:03:49;10.90;;;4.00;;
8319;SDS011;4197;42.130;24.746;2022-07-04T08:06:38;7.80;;;2.88;;
8319;SDS011;4197;42.130;24.746;2022-07-04T08:09:27;7.10;;;3.22;;
8319;SDS011;4197;42.130;24.746;2022-07-04T08:11:55;10.50;;;3.38;;
8319;SDS011;4197;42.130;24.746;2022-07-04T08:14:23;14.00;;;3.70;;
8319;SDS011;4197;42.130;24.746;2022-07-04T08:16:53;12.68;;;3.83;;
8319;SDS011;4197;42.130;24.746;2022-07-04T08:19:22;10.65;;;3.70;;
8319;SDS011;4197;42.130;24.746;2022-07-04T08:21:50;6.22;;;3.33;;
8319;SDS011;4197;42.130;24.746;2022-07-04T08:24:39;7.45;;;3.13;;
8319;SDS011;4197;42.130;24.746;2022-07-04T08:27:07;4.45;;;3.15;;
8319;SDS011;4197;42.130;24.746;2022-07-04T08:29:35;6.68;;;3.05;;
8319;SDS011;4197;42.130;24.746;2022-07-04T08:32:05;7.22;;;3.30;;
8319;SDS011;4197;42.130;24.746;2022-07-04T08:34:34;6.05;;;3.08;;
8319;SDS011;4197;42.130;24.746;2022-07-04T08:37:03;8.25;;;3.47;;
8319;SDS011;4197;42.130;24.746;2022-07-04T08:39:31;11.18;;;3.45;;
8319;SDS011;4197;42.130;24.746;2022-07-04T08:41:59;8.60;;;3.10;;
8319;SDS011;4197;42.130;24.746;2022-07-04T08:44:30;6.43;;;2.50;;
8319;SDS011;4197;42.130;24.746;2022-07-04T08:47:01;9.30;;;3.42;;
8319;SDS011;4197;42.130;24.746;2022-07-04T08:49:32;5.75;;;3.17;;
8319;SDS011;4197;42.130;24.746;2022-07-04T08:52:02;7.13;;;3.05;;
8319;SDS011;4197;42.130;24.746;2022-07-04T08:54:33;6.07;;;3.40;;
8319;SDS011;4197;42.130;24.746;2022-07-04T08:57:19;7.95;;;3.15;;
8319;SDS011;4197;42.130;24.746;2022-07-04T09:00:05;13.45;;;3.53;;
8319;SDS011;4197;42.130;24.746;2022-07-04T09:02:35;3.25;;;2.72;;
8319;SDS011;4197;42.130;24.746;2022-07-04T09:05:06;9.73;;;3.50;;
8319;SDS011;4197;42.130;24.746;2022-07-04T09:07:36;5.20;;;3.15;;
8319;SDS011;4197;42.130;24.746;2022-07-04T09:10:05;7.18;;;3.65;;
8319;SDS011;4197;42.130;24.746;2022-07-04T09:12:35;5.47;;;3.28;;
8319;SDS011;4197;42.130;24.746;2022-07-04T09:15:24;5.50;;;3.22;;
8319;SDS011;4197;42.130;24.746;2022-07-04T09:17:52;6.22;;;2.67;;
8319;SDS011;4197;42.130;24.746;2022-07-04T09:20:22;5.57;;;2.60;;
8319;SDS011;4197;42.130;24.746;2022-07-04T09:22:51;3.97;;;2.10;;
8319;SDS011;4197;42.130;24.746;2022-07-04T09:25:20;4.45;;;2.10;;
8319;SDS011;4197;42.130;24.746;2022-07-04T09:27:50;6.18;;;2.67;;
8319;SDS011;4197;42.130;24.746;2022-07-04T09:30:20;5.65;;;2.80;;
8319;SDS011;4197;42.130;24.746;2022-07-04T09:32:50;4.22;;;3.10;;
8319;SDS011;4197;42.130;24.746;2022-07-04T09:35:28;10.23;;;2.67;;
8319;SDS011;4197;42.130;24.746;2022-07-04T09:37:58;5.50;;;2.67;;
8319;SDS011;4197;42.130;24.746;2022-07-04T09:40:32;8.13;;;2.65;;
8319;SDS011;4197;42.130;24.746;2022-07-04T09:43:21;5.07;;;2.72;;
8319;SDS011;4197;42.130;24.746;2022-07-04T09:45:54;4.60;;;2.78;;
8319;SDS011;4197;42.130;24.746;2022-07-04T09:48:23;8.20;;;2.80;;
8319;SDS011;4197;42.130;24.746;2022-07-04T09:50:53;9.82;;;2.63;;
8319;SDS011;4197;42.130;24.746;2022-07-04T09:53:25;6.85;;;2.33;;
8319;SDS011;4197;42.130;24.746;2022-07-04T09:55:55;3.90;;;2.80;;
8319;SDS011;4197;42.130;24.746;2022-07-04T09:58:23;6.40;;;2.70;;
8319;SDS011;4197;42.130;24.746;2022-07-04T10:00:51;6.32;;;2.63;;
8319;SDS011;4197;42.130;24.746;2022-07-04T10:03:20;5.78;;;2.70;;
8319;SDS011;4197;42.130;24.746;2022-07-04T10:06:03;4.07;;;2.75;;
8319;SDS011;4197;42.130;24.746;2022-07-04T10:08:33;8.50;;;2.85;;
8319;SDS011;4197;42.130;24.746;2022-07-04T10:11:02;14.18;;;3.60;;
8319;SDS011;4197;42.130;24.746;2022-07-04T10:13:35;4.07;;;2.63;;
8319;SDS011;4197;42.130;24.746;2022-07-04T10:16:04;4.40;;;2.55;;
8319;SDS011;4197;42.130;24.746;2022-07-04T10:18:35;4.97;;;2.60;;
8319;SDS011;4197;42.130;24.746;2022-07-04T10:21:05;4.22;;;2.70;;
8319;SDS011;4197;42.130;24.746;2022-07-04T10:23:34;6.75;;;2.70;;
8319;SDS011;4197;42.130;24.746;2022-07-04T10:26:03;7.75;;;2.60;;
8319;SDS011;4197;42.130;24.746;2022-07-04T10:28:32;4.05;;;2.42;;
8319;SDS011;4197;42.130;24.746;2022-07-04T10:31:00;5.70;;;2.78;;
8319;SDS011;4197;42.130;24.746;2022-07-04T10:33:30;8.13;;;2.95;;
8319;SDS011;4197;42.130;24.746;2022-07-04T10:35:59;7.10;;;3.22;;
8319;SDS011;4197;42.130;24.746;2022-07-04T10:38:32;21.63;;;3.72;;
8319;SDS011;4197;42.130;24.746;2022-07-04T10:41:02;7.50;;;2.78;;
8319;SDS011;4197;42.130;24.746;2022-07-04T10:43:50;4.95;;;2.78;;
8319;SDS011;4197;42.130;24.746;2022-07-04T10:46:24;15.05;;;2.97;;
8319;SDS011;4197;42.130;24.746;2022-07-04T10:48:54;10.30;;;2.72;;
8319;SDS011;4197;42.130;24.746;2022-07-04T10:51:34;4.65;;;2.90;;
8319;SDS011;4197;42.130;24.746;2022-07-04T10:54:08;4.25;;;2.60;;
8319;SDS011;4197;42.130;24.746;2022-07-04T10:56:42;7.43;;;2.97;;
8319;SDS011;4197;42.130;24.746;2022-07-04T10:59:13;6.50;;;2.90;;
8319;SDS011;4197;42.130;24.746;2022-07-04T11:01:49;8.38;;;3.08;;
8319;SDS011;4197;42.130;24.746;2022-07-04T11:04:52;7.00;;;2.67;;
8319;SDS011;4197;42.130;24.746;2022-07-04T11:07:23;7.20;;;2.70;;
8319;SDS011;4197;42.130;24.746;2022-07-04T11:10:25;11.93;;;3.05;;
8319;SDS011;4197;42.130;24.746;2022-07-04T11:13:14;6.88;;;2.70;;
8319;SDS011;4197;42.130;24.746;2022-07-04T11:16:00;9.98;;;2.67;;
8319;SDS011;4197;42.130;24.746;2022-07-04T11:18:42;3.72;;;2.58;;
8319;SDS011;4197;42.130;24.746;2022-07-04T11:21:23;7.68;;;2.92;;
8319;SDS011;4197;42.130;24.746;2022-07-04T11:23:53;8.27;;;2.58;;
8319;SDS011;4197;42.130;24.746;2022-07-04T11:26:24;4.28;;;2.67;;
8319;SDS011;4197;42.130;24.746;2022-07-04T11:28:52;5.47;;;2.67;;
8319;SDS011;4197;42.130;24.746;2022-07-04T11:31:34;11.15;;;3.20;;
8319;SDS011;4197;42.130;24.746;2022-07-04T11:34:03;7.28;;;2.92;;
8319;SDS011;4197;42.130;24.746;2022-07-04T11:36:32;11.23;;;2.97;;
8319;SDS011;4197;42.130;24.746;2022-07-04T11:39:01;9.73;;;3.50;;
8319;SDS011;4197;42.130;24.746;2022-07-04T11:41:33;7.40;;;3.20;;
8319;SDS011;4197;42.130;24.746;2022-07-04T11:44:20;6.45;;;2.80;;
8319;SDS011;4197;42.130;24.746;2022-07-04T11:47:08;3.40;;;2.80;;
8319;SDS011;4197;42.130;24.746;2022-07-04T11:49:43;9.15;;;2.92;;
8319;SDS011;4197;42.130;24.746;2022-07-04T11:52:13;15.27;;;3.45;;
8319;SDS011;4197;42.130;24.746;2022-07-04T11:55:02;9.93;;;2.80;;
8319;SDS011;4197;42.130;24.746;2022-07-04T11:57:34;7.45;;;2.90;;
8319;SDS011;4197;42.130;24.746;2022-07-04T12:00:04;4.57;;;2.78;;
8319;SDS011;4197;42.130;24.746;2022-07-04T12:02:42;5.07;;;3.15;;
8319;SDS011;4197;42.130;24.746;2022-07-04T12:05:11;6.43;;;3.08;;
8319;SDS011;4197;42.130;24.746;2022-07-04T12:07:40;9.23;;;3.17;;
8319;SDS011;4197;42.130;24.746;2022-07-04T12:10:28;5.07;;;2.60;;
8319;SDS011;4197;42.130;24.746;2022-07-04T12:12:58;6.03;;;3.03;;
8319;SDS011;4197;42.130;24.746;2022-07-04T12:15:35;9.02;;;2.85;;
8319;SDS011;4197;42.130;24.746;2022-07-04T12:18:05;3.10;;;2.28;;
8319;SDS011;4197;42.130;24.746;2022-07-04T12:20:42;8.68;;;2.90;;
8319;SDS011;4197;42.130;24.746;2022-07-04T12:23:11;4.45;;;2.50;;
8319;SDS011;4197;42.130;24.746;2022-07-04T12:25:39;3.95;;;2.38;;
8319;SDS011;4197;42.130;24.746;2022-07-04T12:28:12;9.35;;;3.05;;
8319;SDS011;4197;42.130;24.746;2022-07-04T12:30:48;9.15;;;2.50;;
8319;SDS011;4197;42.130;24.746;2022-07-04T12:33:19;4.35;;;2.20;;
8319;SDS011;4197;42.130;24.746;2022-07-04T12:35:48;10.18;;;2.95;;
8319;SDS011;4197;42.130;24.746;2022-07-04T12:38:18;7.63;;;2.67;;
8319;SDS011;4197;42.130;24.746;2022-07-04T12:40:49;3.65;;;2.45;;
8319;SDS011;4197;42.130;24.746;2022-07-04T12:43:21;4.68;;;2.58;;
8319;SDS011;4197;42.130;24.746;2022-07-04T12:45:52;3.53;;;2.83;;
8319;SDS011;4197;42.130;24.746;2022-07-04T12:48:23;6.13;;;2.78;;
8319;SDS011;4197;42.130;24.746;2022-07-04T12:50:53;5.88;;;2.40;;
8319;SDS011;4197;42.130;24.746;2022-07-04T12:53:23;2.30;;;2.10;;
8319;SDS011;4197;42.130;24.746;2022-07-04T12:55:52;5.18;;;2.85;;
8319;SDS011;4197;42.130;24.746;2022-07-04T12:58:22;5.43;;;2.92;;
8319;SDS011;4197;42.130;24.746;2022-07-04T13:00:50;8.50;;;2.78;;
8319;SDS011;4197;42.130;24.746;2022-07-04T13:03:18;10.25;;;2.80;;
8319;SDS011;4197;42.130;24.746;2022-07-04T13:05:47;22.33;;;3.25;;
8319;SDS011;4197;42.130;24.746;2022-07-04T13:08:15;3.45;;;2.30;;
8319;SDS011;4197;42.130;24.746;2022-07-04T13:10:44;4.20;;;2.42;;
8319;SDS011;4197;42.130;24.746;2022-07-04T13:13:12;3.80;;;2.33;;
8319;SDS011;4197;42.130;24.746;2022-07-04T13:15:42;4.80;;;3.17;;
8319;SDS011;4197;42.130;24.746;2022-07-04T13:18:10;9.63;;;3.15;;
8319;SDS011;4197;42.130;24.746;2022-07-04T13:20:38;5.80;;;2.55;;
8319;SDS011;4197;42.130;24.746;2022-07-04T13:23:07;10.25;;;2.80;;
8319;SDS011;4197;42.130;24.746;2022-07-04T13:25:45;5.05;;;2.97;;
8319;SDS011;4197;42.130;24.746;2022-07-04T13:28:13;5.95;;;2.42;;
8319;SDS011;4197;42.130;24.746;2022-07-04T13:30:43;6.38;;;2.40;;
8319;SDS011;4197;42.130;24.746;2022-07-04T13:33:11;11.02;;;2.75;;
8319;SDS011;4197;42.130;24.746;2022-07-04T13:35:39;8.88;;;2.97;;
8319;SDS011;4197;42.130;24.746;2022-07-04T13:38:10;4.95;;;2.35;;
8319;SDS011;4197;42.130;24.746;2022-07-04T13:40:38;5.57;;;2.40;;
8319;SDS011;4197;42.130;24.746;2022-07-04T13:43:07;4.32;;;2.70;;
8319;SDS011;4197;42.130;24.746;2022-07-04T13:45:37;4.97;;;2.25;;
8319;SDS011;4197;42.130;24.746;2022-07-04T13:48:08;4.55;;;2.38;;
8319;SDS011;4197;42.130;24.746;2022-07-04T13:50:37;4.20;;;2.60;;
8319;SDS011;4197;42.130;24.746;2022-07-04T13:53:05;3.65;;;2.22;;
8319;SDS011;4197;42.130;24.746;2022-07-04T13:55:35;5.43;;;2.45;;
8319;SDS011;4197;42.130;24.746;2022-07-04T13:58:06;6.65;;;2.28;;
8319;SDS011;4197;42.130;24.746;2022-07-04T14:00:36;3.80;;;2.80;;
8319;SDS011;4197;42.130;24.746;2022-07-04T14:03:08;6.03;;;2.35;;
8319;SDS011;4197;42.130;24.746;2022-07-04T14:05:36;6.30;;;2.25;;
8319;SDS011;4197;42.130;24.746;2022-07-04T14:08:05;7.22;;;2.20;;
8319;SDS011;4197;42.130;24.746;2022-07-04T14:10:33;9.90;;;3.05;;
8319;SDS011;4197;42.130;24.746;2022-07-04T14:13:01;5.07;;;2.67;;
8319;SDS011;4197;42.130;24.746;2022-07-04T14:15:35;9.73;;;3.53;;
8319;SDS011;4197;42.130;24.746;2022-07-04T14:18:04;7.13;;;2.75;;
8319;SDS011;4197;42.130;24.746;2022-07-04T14:20:38;7.03;;;2.97;;
8319;SDS011;4197;42.130;24.746;2022-07-04T14:23:07;5.95;;;2.42;;
8319;SDS011;4197;42.130;24.746;2022-07-04T14:25:35;7.80;;;2.50;;
8319;SDS011;4197;42.130;24.746;2022-07-04T14:28:03;4.07;;;2.45;;
8319;SDS011;4197;42.130;24.746;2022-07-04T14:30:32;4.22;;;2.20;;
8319;SDS011;4197;42.130;24.746;2022-07-04T14:33:00;9.35;;;3.10;;
8319;SDS011;4197;42.130;24.746;2022-07-04T14:35:29;11.30;;;3.08;;
8319;SDS011;4197;42.130;24.746;2022-07-04T14:37:59;6.05;;;2.88;;
8319;SDS011;4197;42.130;24.746;2022-07-04T14:40:27;6.88;;;2.60;;
8319;SDS011;4197;42.130;24.746;2022-07-04T14:42:56;7.50;;;2.72;;
8319;SDS011;4197;42.130;24.746;2022-07-04T14:45:24;4.38;;;2.60;;
8319;SDS011;4197;42.130;24.746;2022-07-04T14:47:52;5.80;;;2.45;;
8319;SDS011;4197;42.130;24.746;2022-07-04T14:50:21;6.15;;;2.53;;
8319;SDS011;4197;42.130;24.746;2022-07-04T14:52:49;3.67;;;2.20;;
8319;SDS011;4197;42.130;24.746;2022-07-04T14:55:19;5.13;;;2.22;;
8319;SDS011;4197;42.130;24.746;2022-07-04T14:57:47;5.85;;;2.40;;
8319;SDS011;4197;42.130;24.746;2022-07-04T15:00:16;18.90;;;3.30;;
8319;SDS011;4197;42.130;24.746;2022-07-04T15:02:44;7.63;;;3.13;;
8319;SDS011;4197;42.130;24.746;2022-07-04T15:05:13;5.32;;;2.47;;
8319;SDS011;4197;42.130;24.746;2022-07-04T15:07:41;7.13;;;2.90;;
8319;SDS011;4197;42.130;24.746;2022-07-04T15:10:09;5.45;;;2.83;;
8319;SDS011;4197;42.130;24.746;2022-07-04T15:12:40;8.27;;;2.70;;
8319;SDS011;4197;42.130;24.746;2022-07-04T15:15:09;8.35;;;3.70;;
8319;SDS011;4197;42.130;24.746;2022-07-04T15:17:58;12.50;;;6.10;;
8319;SDS011;4197;42.130;24.746;2022-07-04T15:20:27;10.23;;;4.60;;